sensor_id;sensor_type;location;lat;lon;timestamp;temperature;humidity
27314;DHT22;14800;48.174;9.798;2022-11-15T00:00:50;9.40;85.70
27314;DHT22;14800;48.174;9.798;2022-11-15T00:03:19;9.40;85.70
27314;DHT22;14800;48.174;9.798;2022-11-15T00:05:45;9.40;85.60
27314;DHT22;14800;48.174;9.798;2022-11-15T00:08:12;9.30;85.40
27314;DHT22;14800;48.174;9.798;2022-11-15T00:10:38;9.30;85.30
27314;DHT22;14800;48.174;9.798;2022-11-15T00:13:11;9.30;85.30
27314;DHT22;14800;48.174;9.798;2022-11-15T00:15:41;9.20;85.30
27314;DHT22;14800;48.174;9.798;2022-11-15T00:18:14;9.30;85.20
27314;DHT22;14800;48.174;9.798;2022-11-15T00:20:40;9.30;85.20
27314;DHT22;14800;48.174;9.798;2022-11-15T00:23:07;9.20;85.20
27314;DHT22;14800;48.174;9.798;2022-11-15T00:25:33;9.20;85.30
27314;DHT22;14800;48.174;9.798;2022-11-15T00:27:59;9.20;85.20
27314;DHT22;14800;48.174;9.798;2022-11-15T00:30:25;9.20;85.20
27314;DHT22;14800;48.174;9.798;2022-11-15T00:32:51;9.10;85.10
27314;DHT22;14800;48.174;9.798;2022-11-15T00:35:17;9.20;85.20
27314;DHT22;14800;48.174;9.798;2022-11-15T00:37:43;9.10;85.10
27314;DHT22;14800;48.174;9.798;2022-11-15T00:40:09;9.10;85.10
27314;DHT22;14800;48.174;9.798;2022-11-15T00:42:35;9.10;85.30
27314;DHT22;14800;48.174;9.798;2022-11-15T00:45:01;9.10;85.50
27314;DHT22;14800;48.174;9.798;2022-11-15T00:47:27;9.00;85.70
27314;DHT22;14800;48.174;9.798;2022-11-15T00:49:52;9.00;86.00
27314;DHT22;14800;48.174;9.798;2022-11-15T00:52:18;9.00;86.20
27314;DHT22;14800;48.174;9.798;2022-11-15T00:54:43;9.00;86.30
27314;DHT22;14800;48.174;9.798;2022-11-15T00:57:09;9.00;86.40
27314;DHT22;14800;48.174;9.798;2022-11-15T00:59:34;9.00;86.30
27314;DHT22;14800;48.174;9.798;2022-11-15T01:02:00;9.00;86.30
27314;DHT22;14800;48.174;9.798;2022-11-15T01:04:26;9.00;86.20
27314;DHT22;14800;48.174;9.798;2022-11-15T01:06:52;9.00;86.00
27314;DHT22;14800;48.174;9.798;2022-11-15T01:09:18;9.00;86.00
27314;DHT22;14800;48.174;9.798;2022-11-15T01:11:43;9.00;86.10
27314;DHT22;14800;48.174;9.798;2022-11-15T01:14:09;8.90;86.00
27314;DHT22;14800;48.174;9.798;2022-11-15T01:16:34;8.90;86.20
27314;DHT22;14800;48.174;9.798;2022-11-15T01:19:00;8.90;86.20
27314;DHT22;14800;48.174;9.798;2022-11-15T01:21:25;8.80;86.20
27314;DHT22;14800;48.174;9.798;2022-11-15T01:23:55;8.90;86.40
27314;DHT22;14800;48.174;9.798;2022-11-15T01:26:21;8.80;86.20
27314;DHT22;14800;48.174;9.798;2022-11-15T01:28:47;8.80;86.00
27314;DHT22;14800;48.174;9.798;2022-11-15T01:31:15;8.80;85.80
27314;DHT22;14800;48.174;9.798;2022-11-15T01:33:42;8.80;85.70
27314;DHT22;14800;48.174;9.798;2022-11-15T01:36:11;8.80;85.60
27314;DHT22;14800;48.174;9.798;2022-11-15T01:38:37;8.80;85.40
27314;DHT22;14800;48.174;9.798;2022-11-15T01:41:03;8.80;85.40
27314;DHT22;14800;48.174;9.798;2022-11-15T01:43:35;8.70;85.10
27314;DHT22;14800;48.174;9.798;2022-11-15T01:46:08;8.80;84.70
27314;DHT22;14800;48.174;9.798;2022-11-15T01:48:40;8.70;84.50
27314;DHT22;14800;48.174;9.798;2022-11-15T01:51:09;8.60;84.60
27314;DHT22;14800;48.174;9.798;2022-11-15T01:53:38;8.60;84.80
27314;DHT22;14800;48.174;9.798;2022-11-15T01:56:08;8.60;84.60
27314;DHT22;14800;48.174;9.798;2022-11-15T01:58:36;8.50;84.50
27314;DHT22;14800;48.174;9.798;2022-11-15T02:01:01;8.40;84.40
27314;DHT22;14800;48.174;9.798;2022-11-15T02:03:56;8.40;85.20
27314;DHT22;14800;48.174;9.798;2022-11-15T02:06:20;8.30;84.20
27314;DHT22;14800;48.174;9.798;2022-11-15T02:08:47;8.30;84.30
27314;DHT22;14800;48.174;9.798;2022-11-15T02:11:12;8.20;84.60
27314;DHT22;14800;48.174;9.798;2022-11-15T02:13:39;8.10;85.00
27314;DHT22;14800;48.174;9.798;2022-11-15T02:16:27;8.00;85.00
27314;DHT22;14800;48.174;9.798;2022-11-15T02:32:58;7.80;84.70
27314;DHT22;14800;48.174;9.798;2022-11-15T02:35:29;7.80;84.50
27314;DHT22;14800;48.174;9.798;2022-11-15T02:37:58;7.80;84.60
27314;DHT22;14800;48.174;9.798;2022-11-15T02:40:54;7.80;84.70
27314;DHT22;14800;48.174;9.798;2022-11-15T02:43:32;7.70;84.60
27314;DHT22;14800;48.174;9.798;2022-11-15T02:49:18;7.60;84.90
27314;DHT22;14800;48.174;9.798;2022-11-15T02:51:45;7.50;85.00
27314;DHT22;14800;48.174;9.798;2022-11-15T02:54:15;7.50;86.20
27314;DHT22;14800;48.174;9.798;2022-11-15T02:56:43;7.40;85.60
27314;DHT22;14800;48.174;9.798;2022-11-15T03:04:35;7.40;86.40
27314;DHT22;14800;48.174;9.798;2022-11-15T03:07:14;7.30;86.30
27314;DHT22;14800;48.174;9.798;2022-11-15T03:09:51;7.30;86.80
27314;DHT22;14800;48.174;9.798;2022-11-15T03:15:09;7.20;86.90
27314;DHT22;14800;48.174;9.798;2022-11-15T03:17:51;7.30;87.40
27314;DHT22;14800;48.174;9.798;2022-11-15T03:20:20;7.30;87.40
27314;DHT22;14800;48.174;9.798;2022-11-15T03:22:47;7.30;87.10
27314;DHT22;14800;48.174;9.798;2022-11-15T03:25:23;7.30;86.90
27314;DHT22;14800;48.174;9.798;2022-11-15T03:27:51;7.30;86.90
27314;DHT22;14800;48.174;9.798;2022-11-15T03:30:18;7.30;87.30
27314;DHT22;14800;48.174;9.798;2022-11-15T03:32:47;7.30;86.70
27314;DHT22;14800;48.174;9.798;2022-11-15T03:35:18;7.30;86.80
27314;DHT22;14800;48.174;9.798;2022-11-15T03:40:40;7.30;86.90
27314;DHT22;14800;48.174;9.798;2022-11-15T03:45:54;7.40;87.10
27314;DHT22;14800;48.174;9.798;2022-11-15T03:48:24;7.40;87.30
27314;DHT22;14800;48.174;9.798;2022-11-15T03:50:52;7.40;87.10
27314;DHT22;14800;48.174;9.798;2022-11-15T03:53:18;7.40;87.20
27314;DHT22;14800;48.174;9.798;2022-11-15T03:55:44;7.40;87.20
27314;DHT22;14800;48.174;9.798;2022-11-15T03:58:10;7.50;87.30
27314;DHT22;14800;48.174;9.798;2022-11-15T04:00:35;7.50;87.30
27314;DHT22;14800;48.174;9.798;2022-11-15T04:03:01;7.60;87.30
27314;DHT22;14800;48.174;9.798;2022-11-15T04:05:27;7.60;87.10
27314;DHT22;14800;48.174;9.798;2022-11-15T04:07:52;7.60;87.10
27314;DHT22;14800;48.174;9.798;2022-11-15T04:10:18;7.60;87.00
27314;DHT22;14800;48.174;9.798;2022-11-15T04:12:45;7.60;87.00
27314;DHT22;14800;48.174;9.798;2022-11-15T04:15:15;7.60;86.90
27314;DHT22;14800;48.174;9.798;2022-11-15T04:17:47;7.60;86.90
27314;DHT22;14800;48.174;9.798;2022-11-15T04:23:00;7.60;86.60
27314;DHT22;14800;48.174;9.798;2022-11-15T04:25:46;7.60;86.60
27314;DHT22;14800;48.174;9.798;2022-11-15T04:28:14;7.60;86.50
27314;DHT22;14800;48.174;9.798;2022-11-15T04:30:40;7.60;86.30
27314;DHT22;14800;48.174;9.798;2022-11-15T04:33:05;7.50;86.20
27314;DHT22;14800;48.174;9.798;2022-11-15T04:35:32;7.50;86.50
27314;DHT22;14800;48.174;9.798;2022-11-15T04:37:58;7.50;85.90
27314;DHT22;14800;48.174;9.798;2022-11-15T04:40:24;7.40;86.00
27314;DHT22;14800;48.174;9.798;2022-11-15T04:42:49;7.40;86.20
27314;DHT22;14800;48.174;9.798;2022-11-15T04:45:15;7.40;86.40
27314;DHT22;14800;48.174;9.798;2022-11-15T04:47:44;7.40;86.40
27314;DHT22;14800;48.174;9.798;2022-11-15T04:50:10;7.40;86.60
27314;DHT22;14800;48.174;9.798;2022-11-15T04:52:39;7.40;86.60
27314;DHT22;14800;48.174;9.798;2022-11-15T04:55:05;7.40;86.50
27314;DHT22;14800;48.174;9.798;2022-11-15T04:57:31;7.40;86.20
27314;DHT22;14800;48.174;9.798;2022-11-15T04:59:56;7.30;86.00
27314;DHT22;14800;48.174;9.798;2022-11-15T05:02:22;7.30;86.10
27314;DHT22;14800;48.174;9.798;2022-11-15T05:04:48;7.30;86.20
27314;DHT22;14800;48.174;9.798;2022-11-15T05:07:13;7.30;86.20
27314;DHT22;14800;48.174;9.798;2022-11-15T05:09:39;7.30;86.20
27314;DHT22;14800;48.174;9.798;2022-11-15T05:12:04;7.30;86.10
27314;DHT22;14800;48.174;9.798;2022-11-15T05:14:30;7.30;86.20
27314;DHT22;14800;48.174;9.798;2022-11-15T05:16:55;7.30;86.40
27314;DHT22;14800;48.174;9.798;2022-11-15T05:19:21;7.30;86.60
27314;DHT22;14800;48.174;9.798;2022-11-15T05:21:47;7.20;86.60
27314;DHT22;14800;48.174;9.798;2022-11-15T05:24:12;7.30;86.40
27314;DHT22;14800;48.174;9.798;2022-11-15T05:26:38;7.30;86.40
27314;DHT22;14800;48.174;9.798;2022-11-15T05:29:03;7.30;86.30
27314;DHT22;14800;48.174;9.798;2022-11-15T05:31:29;7.30;86.40
27314;DHT22;14800;48.174;9.798;2022-11-15T05:33:56;7.30;86.60
27314;DHT22;14800;48.174;9.798;2022-11-15T05:36:28;7.30;86.70
27314;DHT22;14800;48.174;9.798;2022-11-15T05:38:54;7.30;86.70
27314;DHT22;14800;48.174;9.798;2022-11-15T05:41:24;7.30;86.70
27314;DHT22;14800;48.174;9.798;2022-11-15T05:43:51;7.20;86.60
27314;DHT22;14800;48.174;9.798;2022-11-15T05:46:17;7.20;86.80
27314;DHT22;14800;48.174;9.798;2022-11-15T05:48:46;7.30;86.90
27314;DHT22;14800;48.174;9.798;2022-11-15T05:51:14;7.30;86.90
27314;DHT22;14800;48.174;9.798;2022-11-15T05:53:41;7.20;86.90
27314;DHT22;14800;48.174;9.798;2022-11-15T05:56:08;7.20;86.90
27314;DHT22;14800;48.174;9.798;2022-11-15T05:58:34;7.20;87.10
27314;DHT22;14800;48.174;9.798;2022-11-15T06:01:00;7.20;87.30
27314;DHT22;14800;48.174;9.798;2022-11-15T06:03:26;7.20;87.40
27314;DHT22;14800;48.174;9.798;2022-11-15T06:05:51;7.20;87.50
27314;DHT22;14800;48.174;9.798;2022-11-15T06:08:17;7.20;87.60
27314;DHT22;14800;48.174;9.798;2022-11-15T06:10:42;7.10;87.70
27314;DHT22;14800;48.174;9.798;2022-11-15T06:13:08;7.20;88.00
27314;DHT22;14800;48.174;9.798;2022-11-15T06:15:34;7.20;88.00
27314;DHT22;14800;48.174;9.798;2022-11-15T06:17:59;7.20;88.10
27314;DHT22;14800;48.174;9.798;2022-11-15T06:20:26;7.20;87.90
27314;DHT22;14800;48.174;9.798;2022-11-15T06:23:00;7.30;88.00
27314;DHT22;14800;48.174;9.798;2022-11-15T06:25:26;7.30;87.80
27314;DHT22;14800;48.174;9.798;2022-11-15T06:27:53;7.30;87.80
27314;DHT22;14800;48.174;9.798;2022-11-15T06:30:19;7.30;87.80
27314;DHT22;14800;48.174;9.798;2022-11-15T06:32:45;7.30;87.70
27314;DHT22;14800;48.174;9.798;2022-11-15T06:35:11;7.40;87.50
27314;DHT22;14800;48.174;9.798;2022-11-15T06:37:36;7.40;87.50
27314;DHT22;14800;48.174;9.798;2022-11-15T06:40:02;7.40;87.50
27314;DHT22;14800;48.174;9.798;2022-11-15T06:42:28;7.40;87.60
27314;DHT22;14800;48.174;9.798;2022-11-15T06:44:53;7.40;87.60
27314;DHT22;14800;48.174;9.798;2022-11-15T06:47:19;7.40;87.40
27314;DHT22;14800;48.174;9.798;2022-11-15T06:49:45;7.40;87.30
27314;DHT22;14800;48.174;9.798;2022-11-15T06:52:10;7.40;87.30
27314;DHT22;14800;48.174;9.798;2022-11-15T06:54:36;7.40;87.40
27314;DHT22;14800;48.174;9.798;2022-11-15T06:57:01;7.40;87.60
27314;DHT22;14800;48.174;9.798;2022-11-15T06:59:29;7.40;87.60
27314;DHT22;14800;48.174;9.798;2022-11-15T07:01:54;7.30;87.70
27314;DHT22;14800;48.174;9.798;2022-11-15T07:04:20;7.30;87.90
27314;DHT22;14800;48.174;9.798;2022-11-15T07:06:48;7.30;88.00
27314;DHT22;14800;48.174;9.798;2022-11-15T07:09:14;7.20;88.10
27314;DHT22;14800;48.174;9.798;2022-11-15T07:11:40;7.20;88.10
27314;DHT22;14800;48.174;9.798;2022-11-15T07:14:06;7.20;88.20
27314;DHT22;14800;48.174;9.798;2022-11-15T07:16:31;7.10;88.30
27314;DHT22;14800;48.174;9.798;2022-11-15T07:18:57;7.10;88.60
27314;DHT22;14800;48.174;9.798;2022-11-15T07:21:22;7.00;88.90
27314;DHT22;14800;48.174;9.798;2022-11-15T07:23:48;7.00;89.30
27314;DHT22;14800;48.174;9.798;2022-11-15T07:26:14;7.00;89.40
27314;DHT22;14800;48.174;9.798;2022-11-15T07:28:39;6.90;89.50
27314;DHT22;14800;48.174;9.798;2022-11-15T07:31:07;6.90;89.80
27314;DHT22;14800;48.174;9.798;2022-11-15T07:33:33;6.90;90.00
27314;DHT22;14800;48.174;9.798;2022-11-15T07:36:04;6.90;90.10
27314;DHT22;14800;48.174;9.798;2022-11-15T07:38:30;6.90;90.20
27314;DHT22;14800;48.174;9.798;2022-11-15T07:40:58;7.00;90.20
27314;DHT22;14800;48.174;9.798;2022-11-15T07:43:24;7.00;90.20
27314;DHT22;14800;48.174;9.798;2022-11-15T07:45:50;7.00;90.20
27314;DHT22;14800;48.174;9.798;2022-11-15T07:48:15;7.00;90.20
27314;DHT22;14800;48.174;9.798;2022-11-15T07:50:42;7.00;90.30
27314;DHT22;14800;48.174;9.798;2022-11-15T07:53:08;7.10;90.40
27314;DHT22;14800;48.174;9.798;2022-11-15T07:55:34;7.10;90.30
27314;DHT22;14800;48.174;9.798;2022-11-15T07:58:10;7.20;90.40
27314;DHT22;14800;48.174;9.798;2022-11-15T08:00:36;7.20;90.40
27314;DHT22;14800;48.174;9.798;2022-11-15T08:03:13;7.20;90.40
27314;DHT22;14800;48.174;9.798;2022-11-15T08:05:41;7.30;90.40
27314;DHT22;14800;48.174;9.798;2022-11-15T08:08:08;7.30;90.20
27314;DHT22;14800;48.174;9.798;2022-11-15T08:10:33;7.40;90.20
27314;DHT22;14800;48.174;9.798;2022-11-15T08:13:00;7.40;90.20
27314;DHT22;14800;48.174;9.798;2022-11-15T08:15:26;7.50;90.20
27314;DHT22;14800;48.174;9.798;2022-11-15T08:18:01;7.50;90.20
27314;DHT22;14800;48.174;9.798;2022-11-15T08:20:28;7.50;90.20
27314;DHT22;14800;48.174;9.798;2022-11-15T08:22:58;7.50;90.20
27314;DHT22;14800;48.174;9.798;2022-11-15T08:25:25;7.50;90.20
27314;DHT22;14800;48.174;9.798;2022-11-15T08:27:58;7.60;90.10
27314;DHT22;14800;48.174;9.798;2022-11-15T08:30:25;7.60;90.00
27314;DHT22;14800;48.174;9.798;2022-11-15T08:32:51;7.60;90.00
27314;DHT22;14800;48.174;9.798;2022-11-15T08:35:18;7.60;90.00
27314;DHT22;14800;48.174;9.798;2022-11-15T08:37:43;7.60;90.00
27314;DHT22;14800;48.174;9.798;2022-11-15T08:40:09;7.60;90.10
27314;DHT22;14800;48.174;9.798;2022-11-15T08:42:35;7.60;90.20
27314;DHT22;14800;48.174;9.798;2022-11-15T08:45:01;7.60;90.20
27314;DHT22;14800;48.174;9.798;2022-11-15T08:47:27;7.70;90.30
27314;DHT22;14800;48.174;9.798;2022-11-15T08:49:53;7.70;90.20
27314;DHT22;14800;48.174;9.798;2022-11-15T08:52:18;7.70;90.30
27314;DHT22;14800;48.174;9.798;2022-11-15T08:54:44;7.70;90.40
27314;DHT22;14800;48.174;9.798;2022-11-15T08:57:10;7.70;90.50
27314;DHT22;14800;48.174;9.798;2022-11-15T08:59:36;7.70;90.60
27314;DHT22;14800;48.174;9.798;2022-11-15T09:02:02;7.80;90.70
27314;DHT22;14800;48.174;9.798;2022-11-15T09:04:28;7.80;90.80
27314;DHT22;14800;48.174;9.798;2022-11-15T09:06:53;7.90;90.90
27314;DHT22;14800;48.174;9.798;2022-11-15T09:09:19;7.90;91.00
27314;DHT22;14800;48.174;9.798;2022-11-15T09:11:44;7.90;91.00
27314;DHT22;14800;48.174;9.798;2022-11-15T09:14:11;7.90;91.00
27314;DHT22;14800;48.174;9.798;2022-11-15T09:16:37;8.00;91.10
27314;DHT22;14800;48.174;9.798;2022-11-15T09:19:03;8.10;91.20
27314;DHT22;14800;48.174;9.798;2022-11-15T09:21:29;8.10;91.20
27314;DHT22;14800;48.174;9.798;2022-11-15T09:23:55;8.10;91.30
27314;DHT22;14800;48.174;9.798;2022-11-15T09:26:20;8.20;91.30
27314;DHT22;14800;48.174;9.798;2022-11-15T09:28:46;8.30;91.40
27314;DHT22;14800;48.174;9.798;2022-11-15T09:31:11;8.40;91.40
27314;DHT22;14800;48.174;9.798;2022-11-15T09:33:37;8.50;91.40
27314;DHT22;14800;48.174;9.798;2022-11-15T09:36:05;8.60;91.40
27314;DHT22;14800;48.174;9.798;2022-11-15T09:38:32;8.60;91.40
27314;DHT22;14800;48.174;9.798;2022-11-15T09:49:14;9.00;91.40
27314;DHT22;14800;48.174;9.798;2022-11-15T09:51:43;9.00;91.20
27314;DHT22;14800;48.174;9.798;2022-11-15T09:54:32;9.00;91.10
27314;DHT22;14800;48.174;9.798;2022-11-15T09:57:13;9.00;91.20
27314;DHT22;14800;48.174;9.798;2022-11-15T10:04:57;9.20;91.00
27314;DHT22;14800;48.174;9.798;2022-11-15T10:07:33;9.20;91.00
27314;DHT22;14800;48.174;9.798;2022-11-15T10:10:17;9.30;91.00
27314;DHT22;14800;48.174;9.798;2022-11-15T10:12:48;9.30;90.90
27314;DHT22;14800;48.174;9.798;2022-11-15T10:15:16;9.40;90.90
27314;DHT22;14800;48.174;9.798;2022-11-15T10:18:06;9.50;90.90
27314;DHT22;14800;48.174;9.798;2022-11-15T10:21:07;9.50;91.00
27314;DHT22;14800;48.174;9.798;2022-11-15T10:23:38;9.70;91.10
27314;DHT22;14800;48.174;9.798;2022-11-15T10:26:08;9.80;90.90
27314;DHT22;14800;48.174;9.798;2022-11-15T10:28:35;9.80;90.80
27314;DHT22;14800;48.174;9.798;2022-11-15T10:31:01;9.90;90.80
27314;DHT22;14800;48.174;9.798;2022-11-15T10:33:36;10.00;90.80
27314;DHT22;14800;48.174;9.798;2022-11-15T10:36:22;10.10;90.80
27314;DHT22;14800;48.174;9.798;2022-11-15T10:46:33;10.50;90.70
27314;DHT22;14800;48.174;9.798;2022-11-15T10:49:26;10.60;90.60
27314;DHT22;14800;48.174;9.798;2022-11-15T10:52:02;10.70;90.40
27314;DHT22;14800;48.174;9.798;2022-11-15T10:57:13;10.90;90.20
27314;DHT22;14800;48.174;9.798;2022-11-15T10:59:46;10.90;90.20
27314;DHT22;14800;48.174;9.798;2022-11-15T11:04:57;11.10;90.10
27314;DHT22;14800;48.174;9.798;2022-11-15T11:07:26;11.20;90.10
27314;DHT22;14800;48.174;9.798;2022-11-15T11:10:05;11.20;90.10
27314;DHT22;14800;48.174;9.798;2022-11-15T11:12:42;11.40;89.90
27314;DHT22;14800;48.174;9.798;2022-11-15T11:15:13;11.50;89.70
27314;DHT22;14800;48.174;9.798;2022-11-15T11:29:14;11.90;87.50
27314;DHT22;14800;48.174;9.798;2022-11-15T11:40:50;12.20;85.80
27314;DHT22;14800;48.174;9.798;2022-11-15T11:46:02;12.30;85.80
27314;DHT22;14800;48.174;9.798;2022-11-15T11:48:47;12.40;86.10
27314;DHT22;14800;48.174;9.798;2022-11-15T11:51:30;12.40;85.90
27314;DHT22;14800;48.174;9.798;2022-11-15T11:54:10;12.50;85.60
27314;DHT22;14800;48.174;9.798;2022-11-15T11:56:39;12.60;85.70
27314;DHT22;14800;48.174;9.798;2022-11-15T11:59:21;12.60;85.70
27314;DHT22;14800;48.174;9.798;2022-11-15T12:01:48;12.70;85.70
27314;DHT22;14800;48.174;9.798;2022-11-15T12:04:30;12.80;85.80
27314;DHT22;14800;48.174;9.798;2022-11-15T12:07:25;12.80;85.70
27314;DHT22;14800;48.174;9.798;2022-11-15T12:10:24;12.90;84.50
27314;DHT22;14800;48.174;9.798;2022-11-15T12:13:08;13.00;84.30
27314;DHT22;14800;48.174;9.798;2022-11-15T12:15:45;13.00;84.90
27314;DHT22;14800;48.174;9.798;2022-11-15T12:18:14;13.00;85.00
27314;DHT22;14800;48.174;9.798;2022-11-15T12:20:50;13.10;85.40
27314;DHT22;14800;48.174;9.798;2022-11-15T12:23:29;13.10;85.40
27314;DHT22;14800;48.174;9.798;2022-11-15T12:28:40;13.20;85.40
27314;DHT22;14800;48.174;9.798;2022-11-15T12:33:41;13.40;85.10
27314;DHT22;14800;48.174;9.798;2022-11-15T12:36:35;13.40;84.80
27314;DHT22;14800;48.174;9.798;2022-11-15T12:41:29;13.50;84.70
27314;DHT22;14800;48.174;9.798;2022-11-15T12:43:56;13.60;84.00
27314;DHT22;14800;48.174;9.798;2022-11-15T12:59:55;13.80;82.10
27314;DHT22;14800;48.174;9.798;2022-11-15T13:02:39;13.90;81.90
27314;DHT22;14800;48.174;9.798;2022-11-15T13:17:45;14.10;81.70
27314;DHT22;14800;48.174;9.798;2022-11-15T13:31:46;14.20;80.60
27314;DHT22;14800;48.174;9.798;2022-11-15T13:33:47;14.30;79.60
27314;DHT22;14800;48.174;9.798;2022-11-15T13:38:43;14.30;80.20
27314;DHT22;14800;48.174;9.798;2022-11-15T13:41:30;14.30;80.30
27314;DHT22;14800;48.174;9.798;2022-11-15T13:43:56;14.30;79.80
27314;DHT22;14800;48.174;9.798;2022-11-15T13:46:27;14.40;80.60
27314;DHT22;14800;48.174;9.798;2022-11-15T13:49:03;14.40;80.30
27314;DHT22;14800;48.174;9.798;2022-11-15T13:51:47;14.40;80.10
27314;DHT22;14800;48.174;9.798;2022-11-15T13:59:29;14.40;80.40
27314;DHT22;14800;48.174;9.798;2022-11-15T14:01:58;14.40;80.60
27314;DHT22;14800;48.174;9.798;2022-11-15T14:04:27;14.30;81.50
27314;DHT22;14800;48.174;9.798;2022-11-15T14:07:01;14.30;80.70
27314;DHT22;14800;48.174;9.798;2022-11-15T14:11:56;14.20;80.80
27314;DHT22;14800;48.174;9.798;2022-11-15T14:14:26;14.20;80.80
27314;DHT22;14800;48.174;9.798;2022-11-15T14:16:54;14.20;80.80
27314;DHT22;14800;48.174;9.798;2022-11-15T14:24:33;14.20;80.60
27314;DHT22;14800;48.174;9.798;2022-11-15T14:27:19;14.30;81.00
27314;DHT22;14800;48.174;9.798;2022-11-15T14:29:45;14.20;80.60
27314;DHT22;14800;48.174;9.798;2022-11-15T14:32:25;14.20;81.00
27314;DHT22;14800;48.174;9.798;2022-11-15T14:34:56;14.20;80.80
27314;DHT22;14800;48.174;9.798;2022-11-15T14:37:29;14.20;81.00
27314;DHT22;14800;48.174;9.798;2022-11-15T14:39:56;14.20;80.90
27314;DHT22;14800;48.174;9.798;2022-11-15T14:42:23;14.20;81.10
27314;DHT22;14800;48.174;9.798;2022-11-15T14:44:49;14.20;81.10
27314;DHT22;14800;48.174;9.798;2022-11-15T14:47:14;14.20;81.10
27314;DHT22;14800;48.174;9.798;2022-11-15T14:49:40;14.20;81.00
27314;DHT22;14800;48.174;9.798;2022-11-15T14:54:48;14.20;80.60
27314;DHT22;14800;48.174;9.798;2022-11-15T14:57:13;14.10;80.80
27314;DHT22;14800;48.174;9.798;2022-11-15T14:59:39;14.20;80.80
27314;DHT22;14800;48.174;9.798;2022-11-15T15:02:14;14.10;80.70
27314;DHT22;14800;48.174;9.798;2022-11-15T15:04:41;14.10;80.50
27314;DHT22;14800;48.174;9.798;2022-11-15T15:07:06;14.10;80.80
27314;DHT22;14800;48.174;9.798;2022-11-15T15:09:32;14.10;80.80
27314;DHT22;14800;48.174;9.798;2022-11-15T15:11:57;14.10;80.70
27314;DHT22;14800;48.174;9.798;2022-11-15T15:14:23;14.10;80.50
27314;DHT22;14800;48.174;9.798;2022-11-15T15:16:49;14.10;80.30
27314;DHT22;14800;48.174;9.798;2022-11-15T15:19:14;14.00;80.10
27314;DHT22;14800;48.174;9.798;2022-11-15T15:21:40;14.00;80.10
27314;DHT22;14800;48.174;9.798;2022-11-15T15:24:05;14.00;80.20
27314;DHT22;14800;48.174;9.798;2022-11-15T15:26:31;14.00;80.10
27314;DHT22;14800;48.174;9.798;2022-11-15T15:29:01;14.00;80.20
27314;DHT22;14800;48.174;9.798;2022-11-15T15:31:27;14.00;80.10
27314;DHT22;14800;48.174;9.798;2022-11-15T15:33:52;13.90;80.00
27314;DHT22;14800;48.174;9.798;2022-11-15T15:36:18;13.90;80.10
27314;DHT22;14800;48.174;9.798;2022-11-15T15:38:44;13.80;80.10
27314;DHT22;14800;48.174;9.798;2022-11-15T15:41:12;13.80;80.30
27314;DHT22;14800;48.174;9.798;2022-11-15T15:43:38;13.80;80.30
27314;DHT22;14800;48.174;9.798;2022-11-15T15:46:07;13.80;80.30
27314;DHT22;14800;48.174;9.798;2022-11-15T15:48:33;13.80;80.30
27314;DHT22;14800;48.174;9.798;2022-11-15T15:51:02;13.70;80.30
27314;DHT22;14800;48.174;9.798;2022-11-15T15:53:28;13.70;80.40
27314;DHT22;14800;48.174;9.798;2022-11-15T15:55:54;13.70;80.50
27314;DHT22;14800;48.174;9.798;2022-11-15T15:58:19;13.70;80.60
27314;DHT22;14800;48.174;9.798;2022-11-15T16:00:45;13.70;80.60
27314;DHT22;14800;48.174;9.798;2022-11-15T16:03:10;13.60;80.60
27314;DHT22;14800;48.174;9.798;2022-11-15T16:05:36;13.60;80.60
27314;DHT22;14800;48.174;9.798;2022-11-15T16:08:02;13.60;80.70
27314;DHT22;14800;48.174;9.798;2022-11-15T16:10:30;13.50;80.80
27314;DHT22;14800;48.174;9.798;2022-11-15T16:12:57;13.50;80.70
27314;DHT22;14800;48.174;9.798;2022-11-15T16:15:24;13.50;80.70
27314;DHT22;14800;48.174;9.798;2022-11-15T16:17:53;13.50;80.60
27314;DHT22;14800;48.174;9.798;2022-11-15T16:23:12;13.40;80.10
27314;DHT22;14800;48.174;9.798;2022-11-15T16:30:46;13.30;80.00
27314;DHT22;14800;48.174;9.798;2022-11-15T16:33:12;13.40;80.30
27314;DHT22;14800;48.174;9.798;2022-11-15T16:35:38;13.30;80.30
27314;DHT22;14800;48.174;9.798;2022-11-15T16:38:03;13.30;80.40
27314;DHT22;14800;48.174;9.798;2022-11-15T16:40:31;13.30;80.30
27314;DHT22;14800;48.174;9.798;2022-11-15T16:42:58;13.30;80.50
27314;DHT22;14800;48.174;9.798;2022-11-15T16:45:24;13.20;80.30
27314;DHT22;14800;48.174;9.798;2022-11-15T16:47:52;13.20;80.50
27314;DHT22;14800;48.174;9.798;2022-11-15T16:50:20;13.10;80.50
27314;DHT22;14800;48.174;9.798;2022-11-15T16:52:52;13.10;80.50
27314;DHT22;14800;48.174;9.798;2022-11-15T16:55:19;13.00;80.60
27314;DHT22;14800;48.174;9.798;2022-11-15T16:57:45;13.00;80.80
27314;DHT22;14800;48.174;9.798;2022-11-15T17:00:11;13.00;81.00
27314;DHT22;14800;48.174;9.798;2022-11-15T17:02:38;12.90;80.90
27314;DHT22;14800;48.174;9.798;2022-11-15T17:05:04;12.90;81.00
27314;DHT22;14800;48.174;9.798;2022-11-15T17:07:29;12.90;81.10
27314;DHT22;14800;48.174;9.798;2022-11-15T17:09:55;12.80;81.30
27314;DHT22;14800;48.174;9.798;2022-11-15T17:12:20;12.80;81.50
27314;DHT22;14800;48.174;9.798;2022-11-15T17:14:46;12.70;81.50
27314;DHT22;14800;48.174;9.798;2022-11-15T17:17:11;12.60;81.60
27314;DHT22;14800;48.174;9.798;2022-11-15T17:19:37;12.70;81.80
27314;DHT22;14800;48.174;9.798;2022-11-15T17:22:02;12.60;81.90
27314;DHT22;14800;48.174;9.798;2022-11-15T17:24:28;12.60;81.90
27314;DHT22;14800;48.174;9.798;2022-11-15T17:26:54;12.60;82.00
27314;DHT22;14800;48.174;9.798;2022-11-15T17:29:19;12.60;82.10
27314;DHT22;14800;48.174;9.798;2022-11-15T17:31:45;12.60;82.20
27314;DHT22;14800;48.174;9.798;2022-11-15T17:34:10;12.60;82.20
27314;DHT22;14800;48.174;9.798;2022-11-15T17:36:36;12.60;82.10
27314;DHT22;14800;48.174;9.798;2022-11-15T17:39:03;12.60;82.20
27314;DHT22;14800;48.174;9.798;2022-11-15T17:41:29;12.60;82.10
27314;DHT22;14800;48.174;9.798;2022-11-15T17:43:58;12.60;82.00
27314;DHT22;14800;48.174;9.798;2022-11-15T17:46:24;12.60;82.00
27314;DHT22;14800;48.174;9.798;2022-11-15T17:48:50;12.60;82.00
27314;DHT22;14800;48.174;9.798;2022-11-15T17:51:17;12.60;82.10
27314;DHT22;14800;48.174;9.798;2022-11-15T17:53:45;12.50;82.10
27314;DHT22;14800;48.174;9.798;2022-11-15T17:56:16;12.50;82.20
27314;DHT22;14800;48.174;9.798;2022-11-15T17:58:53;12.50;82.30
27314;DHT22;14800;48.174;9.798;2022-11-15T18:01:22;12.50;82.20
27314;DHT22;14800;48.174;9.798;2022-11-15T18:03:48;12.50;82.20
27314;DHT22;14800;48.174;9.798;2022-11-15T18:06:15;12.50;82.30
27314;DHT22;14800;48.174;9.798;2022-11-15T18:08:42;12.40;82.40
27314;DHT22;14800;48.174;9.798;2022-11-15T18:11:12;12.40;82.50
27314;DHT22;14800;48.174;9.798;2022-11-15T18:13:39;12.40;82.70
27314;DHT22;14800;48.174;9.798;2022-11-15T18:16:08;12.40;82.90
27314;DHT22;14800;48.174;9.798;2022-11-15T18:18:35;12.40;83.10
27314;DHT22;14800;48.174;9.798;2022-11-15T18:21:28;12.30;83.10
27314;DHT22;14800;48.174;9.798;2022-11-15T18:23:56;12.40;83.40